sensor_id;sensor_type;location;lat;lon;timestamp;P1;durP1;ratioP1;P2;durP2;ratioP2
48629;SDS011;34426;52.180;4.462;2023-04-01T00:01:45;142.48;;;19.05;;
48629;SDS011;34426;52.180;4.462;2023-04-01T00:04:37;144.25;;;18.45;;
48629;SDS011;34426;52.180;4.462;2023-04-01T00:07:05;141.18;;;18.35;;
48629;SDS011;34426;52.180;4.462;2023-04-01T00:15:16;151.88;;;18.83;;
48629;SDS011;34426;52.180;4.462;2023-04-01T00:17:53;117.28;;;16.65;;
48629;SDS011;34426;52.180;4.462;2023-04-01T00:20:29;126.88;;;16.50;;
48629;SDS011;34426;52.180;4.462;2023-04-01T00:26:05;99.65;;;15.07;;
48629;SDS011;34426;52.180;4.462;2023-04-01T00:28:40;90.82;;;13.00;;
48629;SDS011;34426;52.180;4.462;2023-04-01T00:31:25;91.93;;;15.00;;
48629;SDS011;34426;52.180;4.462;2023-04-01T00:33:53;90.95;;;13.05;;
48629;SDS011;34426;52.180;4.462;2023-04-01T00:36:39;63.60;;;11.18;;
48629;SDS011;34426;52.180;4.462;2023-04-01T00:39:20;74.00;;;11.93;;
48629;SDS011;34426;52.180;4.462;2023-04-01T00:41:51;68.55;;;13.02;;
48629;SDS011;34426;52.180;4.462;2023-04-01T00:44:26;74.25;;;12.55;;
48629;SDS011;34426;52.180;4.462;2023-04-01T00:46:58;67.45;;;13.45;;
48629;SDS011;34426;52.180;4.462;2023-04-01T00:49:31;63.42;;;10.45;;
48629;SDS011;34426;52.180;4.462;2023-04-01T00:52:07;69.20;;;11.23;;
48629;SDS011;34426;52.180;4.462;2023-04-01T00:57:32;53.72;;;10.75;;
48629;SDS011;34426;52.180;4.462;2023-04-01T01:00:21;67.00;;;12.30;;
48629;SDS011;34426;52.180;4.462;2023-04-01T01:02:54;62.50;;;11.45;;
48629;SDS011;34426;52.180;4.462;2023-04-01T01:05:23;65.68;;;11.05;;
48629;SDS011;34426;52.180;4.462;2023-04-01T01:08:00;54.35;;;13.15;;
48629;SDS011;34426;52.180;4.462;2023-04-01T01:10:42;72.63;;;12.23;;
48629;SDS011;34426;52.180;4.462;2023-04-01T01:13:15;67.15;;;11.43;;
48629;SDS011;34426;52.180;4.462;2023-04-01T01:15:58;75.95;;;11.88;;
48629;SDS011;34426;52.180;4.462;2023-04-01T01:18:36;59.70;;;11.10;;
48629;SDS011;34426;52.180;4.462;2023-04-01T01:24:25;78.82;;;12.57;;
48629;SDS011;34426;52.180;4.462;2023-04-01T01:30:18;62.85;;;11.55;;
48629;SDS011;34426;52.180;4.462;2023-04-01T01:33:15;73.22;;;11.20;;
48629;SDS011;34426;52.180;4.462;2023-04-01T01:36:26;67.38;;;12.48;;
48629;SDS011;34426;52.180;4.462;2023-04-01T01:39:02;79.22;;;13.80;;
48629;SDS011;34426;52.180;4.462;2023-04-01T01:41:42;90.00;;;14.57;;
48629;SDS011;34426;52.180;4.462;2023-04-01T01:44:22;98.85;;;14.15;;
48629;SDS011;34426;52.180;4.462;2023-04-01T01:49:55;91.63;;;13.77;;
48629;SDS011;34426;52.180;4.462;2023-04-01T01:52:53;77.97;;;12.88;;
48629;SDS011;34426;52.180;4.462;2023-04-01T01:55:32;79.85;;;14.07;;
48629;SDS011;34426;52.180;4.462;2023-04-01T01:58:01;67.15;;;14.60;;
48629;SDS011;34426;52.180;4.462;2023-04-01T02:00:34;71.82;;;11.27;;
48629;SDS011;34426;52.180;4.462;2023-04-01T02:03:05;67.72;;;10.15;;
48629;SDS011;34426;52.180;4.462;2023-04-01T02:05:40;50.00;;;11.23;;
48629;SDS011;34426;52.180;4.462;2023-04-01T02:08:34;57.17;;;10.70;;
48629;SDS011;34426;52.180;4.462;2023-04-01T02:11:06;82.47;;;15.73;;
48629;SDS011;34426;52.180;4.462;2023-04-01T02:16:44;87.10;;;17.10;;
48629;SDS011;34426;52.180;4.462;2023-04-01T02:19:20;82.97;;;19.50;;
48629;SDS011;34426;52.180;4.462;2023-04-01T02:22:00;90.20;;;19.83;;
48629;SDS011;34426;52.180;4.462;2023-04-01T02:24:33;88.07;;;20.73;;
48629;SDS011;34426;52.180;4.462;2023-04-01T02:27:19;71.53;;;20.65;;
48629;SDS011;34426;52.180;4.462;2023-04-01T02:29:54;85.57;;;23.02;;
48629;SDS011;34426;52.180;4.462;2023-04-01T02:35:38;58.35;;;20.30;;
48629;SDS011;34426;52.180;4.462;2023-04-01T02:38:47;72.22;;;23.95;;
48629;SDS011;34426;52.180;4.462;2023-04-01T02:41:30;57.65;;;22.58;;
48629;SDS011;34426;52.180;4.462;2023-04-01T02:44:29;71.50;;;23.48;;
48629;SDS011;34426;52.180;4.462;2023-04-01T02:47:06;70.97;;;21.30;;
48629;SDS011;34426;52.180;4.462;2023-04-01T02:53:04;44.13;;;19.88;;
48629;SDS011;34426;52.180;4.462;2023-04-01T02:55:48;42.58;;;19.58;;
48629;SDS011;34426;52.180;4.462;2023-04-01T03:01:41;61.38;;;23.30;;
48629;SDS011;34426;52.180;4.462;2023-04-01T03:04:26;64.25;;;24.42;;
48629;SDS011;34426;52.180;4.462;2023-04-01T03:07:17;69.85;;;23.30;;
48629;SDS011;34426;52.180;4.462;2023-04-01T03:12:59;62.20;;;22.25;;
48629;SDS011;34426;52.180;4.462;2023-04-01T03:16:01;47.33;;;17.83;;
48629;SDS011;34426;52.180;4.462;2023-04-01T03:18:56;35.58;;;15.15;;
48629;SDS011;34426;52.180;4.462;2023-04-01T03:21:50;40.08;;;15.50;;
48629;SDS011;34426;52.180;4.462;2023-04-01T03:24:46;36.83;;;16.90;;
48629;SDS011;34426;52.180;4.462;2023-04-01T03:30:30;57.00;;;21.60;;
48629;SDS011;34426;52.180;4.462;2023-04-01T03:33:20;55.15;;;21.67;;
48629;SDS011;34426;52.180;4.462;2023-04-01T03:38:55;65.53;;;22.80;;
48629;SDS011;34426;52.180;4.462;2023-04-01T03:41:34;63.55;;;24.73;;
48629;SDS011;34426;52.180;4.462;2023-04-01T03:47:24;70.32;;;27.98;;
48629;SDS011;34426;52.180;4.462;2023-04-01T03:49:58;71.65;;;27.40;;
48629;SDS011;34426;52.180;4.462;2023-04-01T03:55:28;65.07;;;25.08;;
48629;SDS011;34426;52.180;4.462;2023-04-01T03:58:14;57.20;;;23.88;;
48629;SDS011;34426;52.180;4.462;2023-04-01T04:01:22;50.80;;;23.52;;
48629;SDS011;34426;52.180;4.462;2023-04-01T04:04:12;60.13;;;24.58;;
48629;SDS011;34426;52.180;4.462;2023-04-01T04:07:14;55.88;;;22.17;;
48629;SDS011;34426;52.180;4.462;2023-04-01T04:09:52;59.42;;;23.25;;
48629;SDS011;34426;52.180;4.462;2023-04-01T04:12:31;55.08;;;22.48;;
48629;SDS011;34426;52.180;4.462;2023-04-01T04:15:10;66.05;;;25.80;;
48629;SDS011;34426;52.180;4.462;2023-04-01T04:17:55;70.22;;;25.70;;
48629;SDS011;34426;52.180;4.462;2023-04-01T04:20:26;65.90;;;25.15;;
48629;SDS011;34426;52.180;4.462;2023-04-01T04:23:04;59.55;;;26.23;;
48629;SDS011;34426;52.180;4.462;2023-04-01T04:25:55;63.63;;;24.70;;
48629;SDS011;34426;52.180;4.462;2023-04-01T04:31:28;67.28;;;24.90;;
48629;SDS011;34426;52.180;4.462;2023-04-01T04:34:01;77.13;;;24.67;;
48629;SDS011;34426;52.180;4.462;2023-04-01T04:36:46;74.15;;;25.08;;
48629;SDS011;34426;52.180;4.462;2023-04-01T04:39:15;65.22;;;23.80;;
48629;SDS011;34426;52.180;4.462;2023-04-01T04:43:11;67.90;;;24.55;;
48629;SDS011;34426;52.180;4.462;2023-04-01T04:45:05;63.67;;;25.42;;
48629;SDS011;34426;52.180;4.462;2023-04-01T04:47:51;72.15;;;26.40;;
48629;SDS011;34426;52.180;4.462;2023-04-01T05:02:05;78.28;;;26.95;;
48629;SDS011;34426;52.180;4.462;2023-04-01T05:07:40;68.40;;;25.20;;
48629;SDS011;34426;52.180;4.462;2023-04-01T05:10:23;80.97;;;27.17;;
48629;SDS011;34426;52.180;4.462;2023-04-01T05:12:56;63.58;;;21.77;;
48629;SDS011;34426;52.180;4.462;2023-04-01T05:16:01;66.65;;;23.35;;
48629;SDS011;34426;52.180;4.462;2023-04-01T05:18:36;70.38;;;22.70;;
48629;SDS011;34426;52.180;4.462;2023-04-01T05:21:10;76.85;;;23.85;;
48629;SDS011;34426;52.180;4.462;2023-04-01T05:23:50;70.82;;;24.25;;
48629;SDS011;34426;52.180;4.462;2023-04-01T05:29:06;59.38;;;19.40;;
48629;SDS011;34426;52.180;4.462;2023-04-01T05:34:53;53.05;;;19.13;;
48629;SDS011;34426;52.180;4.462;2023-04-01T05:37:41;58.40;;;19.83;;
48629;SDS011;34426;52.180;4.462;2023-04-01T05:40:17;68.95;;;19.63;;
48629;SDS011;34426;52.180;4.462;2023-04-01T05:42:56;59.95;;;20.95;;
48629;SDS011;34426;52.180;4.462;2023-04-01T05:45:30;78.03;;;21.67;;
48629;SDS011;34426;52.180;4.462;2023-04-01T05:53:26;73.43;;;23.30;;
48629;SDS011;34426;52.180;4.462;2023-04-01T06:01:49;93.45;;;22.98;;
48629;SDS011;34426;52.180;4.462;2023-04-01T06:02:12;90.07;;;21.05;;
48629;SDS011;34426;52.180;4.462;2023-04-01T06:08:08;94.57;;;24.38;;
48629;SDS011;34426;52.180;4.462;2023-04-01T06:11:03;86.63;;;22.52;;
48629;SDS011;34426;52.180;4.462;2023-04-01T06:16:53;87.10;;;21.42;;
48629;SDS011;34426;52.180;4.462;2023-04-01T06:19:49;84.90;;;20.20;;
48629;SDS011;34426;52.180;4.462;2023-04-01T06:26:06;70.53;;;21.60;;
48629;SDS011;34426;52.180;4.462;2023-04-01T06:29:02;75.15;;;19.60;;
48629;SDS011;34426;52.180;4.462;2023-04-01T06:32:06;63.47;;;19.98;;
48629;SDS011;34426;52.180;4.462;2023-04-01T06:47:03;65.05;;;20.55;;
48629;SDS011;34426;52.180;4.462;2023-04-01T06:52:41;75.40;;;19.73;;
48629;SDS011;34426;52.180;4.462;2023-04-01T06:55:35;104.68;;;20.55;;
48629;SDS011;34426;52.180;4.462;2023-04-01T07:01:10;84.00;;;20.75;;
48629;SDS011;34426;52.180;4.462;2023-04-01T07:03:44;91.63;;;21.85;;
48629;SDS011;34426;52.180;4.462;2023-04-01T07:06:24;86.88;;;22.58;;
48629;SDS011;34426;52.180;4.462;2023-04-01T07:09:11;81.13;;;22.48;;
48629;SDS011;34426;52.180;4.462;2023-04-01T07:12:09;95.82;;;19.63;;
48629;SDS011;34426;52.180;4.462;2023-04-01T07:14:51;83.88;;;20.10;;
48629;SDS011;34426;52.180;4.462;2023-04-01T07:17:50;61.00;;;17.00;;
48629;SDS011;34426;52.180;4.462;2023-04-01T07:20:43;61.05;;;21.45;;
48629;SDS011;34426;52.180;4.462;2023-04-01T07:23:28;56.63;;;17.45;;
48629;SDS011;34426;52.180;4.462;2023-04-01T07:26:31;61.47;;;18.00;;
48629;SDS011;34426;52.180;4.462;2023-04-01T07:29:30;61.70;;;20.80;;
48629;SDS011;34426;52.180;4.462;2023-04-01T07:32:39;61.28;;;20.58;;
48629;SDS011;34426;52.180;4.462;2023-04-01T07:35:27;71.15;;;20.25;;
48629;SDS011;34426;52.180;4.462;2023-04-01T07:38:06;73.20;;;20.48;;
48629;SDS011;34426;52.180;4.462;2023-04-01T07:43:52;82.70;;;21.60;;
48629;SDS011;34426;52.180;4.462;2023-04-01T07:46:58;78.28;;;22.55;;
48629;SDS011;34426;52.180;4.462;2023-04-01T07:49:40;57.05;;;19.85;;
48629;SDS011;34426;52.180;4.462;2023-04-01T07:52:19;59.60;;;20.98;;
48629;SDS011;34426;52.180;4.462;2023-04-01T07:55:02;64.07;;;21.58;;
48629;SDS011;34426;52.180;4.462;2023-04-01T07:57:38;68.88;;;22.60;;
48629;SDS011;34426;52.180;4.462;2023-04-01T08:00:14;45.40;;;18.13;;
48629;SDS011;34426;52.180;4.462;2023-04-01T08:17:12;56.00;;;22.65;;
48629;SDS011;34426;52.180;4.462;2023-04-01T08:18:36;59.13;;;22.05;;
48629;SDS011;34426;52.180;4.462;2023-04-01T08:21:31;58.80;;;20.88;;
48629;SDS011;34426;52.180;4.462;2023-04-01T08:24:33;70.75;;;23.58;;
48629;SDS011;34426;52.180;4.462;2023-04-01T08:30:25;77.43;;;25.40;;
48629;SDS011;34426;52.180;4.462;2023-04-01T08:33:12;71.45;;;23.70;;
48629;SDS011;34426;52.180;4.462;2023-04-01T08:39:04;82.55;;;22.95;;
48629;SDS011;34426;52.180;4.462;2023-04-01T08:41:53;88.22;;;22.52;;
48629;SDS011;34426;52.180;4.462;2023-04-01T08:45:00;72.65;;;23.88;;
48629;SDS011;34426;52.180;4.462;2023-04-01T08:54:29;87.40;;;22.63;;
48629;SDS011;34426;52.180;4.462;2023-04-01T08:57:25;89.28;;;23.40;;
48629;SDS011;34426;52.180;4.462;2023-04-01T09:00:30;81.38;;;23.83;;
48629;SDS011;34426;52.180;4.462;2023-04-01T09:06:22;63.78;;;22.80;;
48629;SDS011;34426;52.180;4.462;2023-04-01T09:15:30;40.60;;;16.73;;
48629;SDS011;34426;52.180;4.462;2023-04-01T09:21:28;44.05;;;18.77;;
48629;SDS011;34426;52.180;4.462;2023-04-01T09:27:25;47.75;;;19.58;;
48629;SDS011;34426;52.180;4.462;2023-04-01T09:30:07;49.67;;;18.58;;
48629;SDS011;34426;52.180;4.462;2023-04-01T09:36:02;53.65;;;21.80;;
48629;SDS011;34426;52.180;4.462;2023-04-01T09:38:53;53.38;;;22.55;;
48629;SDS011;34426;52.180;4.462;2023-04-01T09:42:14;68.03;;;24.63;;
48629;SDS011;34426;52.180;4.462;2023-04-01T09:51:22;85.15;;;28.08;;
48629;SDS011;34426;52.180;4.462;2023-04-01T10:10:09;83.55;;;26.48;;
48629;SDS011;34426;52.180;4.462;2023-04-01T10:13:11;71.25;;;25.17;;
48629;SDS011;34426;52.180;4.462;2023-04-01T10:16:14;58.08;;;22.67;;
48629;SDS011;34426;52.180;4.462;2023-04-01T10:19:29;68.68;;;24.35;;
48629;SDS011;34426;52.180;4.462;2023-04-01T10:22:31;55.08;;;21.23;;
48629;SDS011;34426;52.180;4.462;2023-04-01T10:25:39;62.85;;;23.55;;
48629;SDS011;34426;52.180;4.462;2023-04-01T10:34:57;55.17;;;20.08;;
48629;SDS011;34426;52.180;4.462;2023-04-01T10:38:31;51.13;;;20.55;;
48629;SDS011;34426;52.180;4.462;2023-04-01T10:44:35;54.95;;;20.42;;
48629;SDS011;34426;52.180;4.462;2023-04-01T11:31:08;30.75;;;13.38;;
48629;SDS011;34426;52.180;4.462;2023-04-01T11:34:43;31.08;;;14.40;;
48629;SDS011;34426;52.180;4.462;2023-04-01T11:40:33;23.65;;;12.43;;
48629;SDS011;34426;52.180;4.462;2023-04-01T11:46:23;32.10;;;15.55;;
48629;SDS011;34426;52.180;4.462;2023-04-01T11:52:25;35.00;;;16.38;;
48629;SDS011;34426;52.180;4.462;2023-04-01T11:58:32;58.85;;;19.00;;
48629;SDS011;34426;52.180;4.462;2023-04-01T12:01:51;48.85;;;19.63;;
48629;SDS011;34426;52.180;4.462;2023-04-01T12:04:46;49.03;;;17.25;;
48629;SDS011;34426;52.180;4.462;2023-04-01T12:10:33;45.53;;;17.50;;
48629;SDS011;34426;52.180;4.462;2023-04-01T12:13:31;41.50;;;16.13;;
48629;SDS011;34426;52.180;4.462;2023-04-01T12:19:00;49.15;;;16.20;;
48629;SDS011;34426;52.180;4.462;2023-04-01T12:21:45;49.20;;;16.10;;
48629;SDS011;34426;52.180;4.462;2023-04-01T12:24:54;48.10;;;14.45;;
48629;SDS011;34426;52.180;4.462;2023-04-01T12:27:42;60.53;;;14.75;;
48629;SDS011;34426;52.180;4.462;2023-04-01T12:30:37;54.13;;;14.40;;
48629;SDS011;34426;52.180;4.462;2023-04-01T12:33:31;44.47;;;12.38;;
48629;SDS011;34426;52.180;4.462;2023-04-01T12:36:30;48.30;;;11.50;;
48629;SDS011;34426;52.180;4.462;2023-04-01T12:39:37;43.65;;;12.10;;
48629;SDS011;34426;52.180;4.462;2023-04-01T12:45:32;40.15;;;9.20;;
48629;SDS011;34426;52.180;4.462;2023-04-01T12:48:08;39.92;;;8.30;;
48629;SDS011;34426;52.180;4.462;2023-04-01T12:51:12;36.47;;;8.52;;
48629;SDS011;34426;52.180;4.462;2023-04-01T12:54:30;25.42;;;6.15;;
48629;SDS011;34426;52.180;4.462;2023-04-01T12:57:26;32.65;;;6.88;;
48629;SDS011;34426;52.180;4.462;2023-04-01T13:03:21;27.13;;;5.40;;
48629;SDS011;34426;52.180;4.462;2023-04-01T13:06:24;32.38;;;6.60;;
48629;SDS011;34426;52.180;4.462;2023-04-01T13:09:12;33.70;;;6.07;;
48629;SDS011;34426;52.180;4.462;2023-04-01T13:12:03;24.45;;;5.32;;
48629;SDS011;34426;52.180;4.462;2023-04-01T13:14:59;27.67;;;5.57;;
48629;SDS011;34426;52.180;4.462;2023-04-01T13:17:54;23.55;;;5.80;;
48629;SDS011;34426;52.180;4.462;2023-04-01T13:20:40;28.23;;;7.28;;
48629;SDS011;34426;52.180;4.462;2023-04-01T13:23:39;26.77;;;6.13;;
48629;SDS011;34426;52.180;4.462;2023-04-01T13:26:33;30.20;;;6.05;;
48629;SDS011;34426;52.180;4.462;2023-04-01T13:29:18;26.90;;;5.43;;
48629;SDS011;34426;52.180;4.462;2023-04-01T13:31:57;25.48;;;6.47;;
48629;SDS011;34426;52.180;4.462;2023-04-01T13:34:49;39.53;;;7.47;;
48629;SDS011;34426;52.180;4.462;2023-04-01T13:37:40;32.40;;;7.10;;
48629;SDS011;34426;52.180;4.462;2023-04-01T13:40:39;33.72;;;5.32;;
48629;SDS011;34426;52.180;4.462;2023-04-01T13:43:18;30.15;;;6.05;;
48629;SDS011;34426;52.180;4.462;2023-04-01T13:48:57;25.15;;;5.38;;
48629;SDS011;34426;52.180;4.462;2023-04-01T13:57:47;22.50;;;5.70;;
48629;SDS011;34426;52.180;4.462;2023-04-01T14:06:31;27.40;;;5.68;;
48629;SDS011;34426;52.180;4.462;2023-04-01T14:09:24;27.92;;;5.68;;
48629;SDS011;34426;52.180;4.462;2023-04-01T14:12:11;36.10;;;7.05;;
48629;SDS011;34426;52.180;4.462;2023-04-01T14:17:51;31.13;;;6.53;;
48629;SDS011;34426;52.180;4.462;2023-04-01T14:20:42;31.75;;;6.57;;
48629;SDS011;34426;52.180;4.462;2023-04-01T14:23:23;36.72;;;6.70;;
48629;SDS011;34426;52.180;4.462;2023-04-01T14:26:45;32.45;;;6.75;;
48629;SDS011;34426;52.180;4.462;2023-04-01T14:29:45;38.67;;;6.30;;
48629;SDS011;34426;52.180;4.462;2023-04-01T14:32:31;35.78;;;7.70;;
48629;SDS011;34426;52.180;4.462;2023-04-01T14:35:19;34.40;;;6.30;;
48629;SDS011;34426;52.180;4.462;2023-04-01T14:38:25;36.03;;;7.68;;
48629;SDS011;34426;52.180;4.462;2023-04-01T14:41:16;36.10;;;6.88;;
48629;SDS011;34426;52.180;4.462;2023-04-01T14:44:18;39.13;;;7.63;;
48629;SDS011;34426;52.180;4.462;2023-04-01T14:50:08;31.13;;;7.07;;
48629;SDS011;34426;52.180;4.462;2023-04-01T14:52:46;24.33;;;6.97;;
48629;SDS011;34426;52.180;4.462;2023-04-01T14:55:32;28.65;;;6.78;;
48629;SDS011;34426;52.180;4.462;2023-04-01T14:58:17;33.58;;;6.70;;
48629;SDS011;34426;52.180;4.462;2023-04-01T15:01:12;32.45;;;6.90;;
48629;SDS011;34426;52.180;4.462;2023-04-01T15:04:02;38.10;;;6.63;;
48629;SDS011;34426;52.180;4.462;2023-04-01T15:06:57;30.43;;;6.77;;
48629;SDS011;34426;52.180;4.462;2023-04-01T15:09:33;31.20;;;7.57;;
48629;SDS011;34426;52.180;4.462;2023-04-01T15:12:17;26.98;;;7.03;;
48629;SDS011;34426;52.180;4.462;2023-04-01T15:15:09;28.13;;;6.25;;
48629;SDS011;34426;52.180;4.462;2023-04-01T15:17:58;27.75;;;6.10;;
48629;SDS011;34426;52.180;4.462;2023-04-01T15:23:51;39.03;;;7.47;;
48629;SDS011;34426;52.180;4.462;2023-04-01T15:26:44;31.35;;;6.38;;
48629;SDS011;34426;52.180;4.462;2023-04-01T15:29:32;29.88;;;6.63;;
48629;SDS011;34426;52.180;4.462;2023-04-01T15:32:24;37.88;;;6.85;;
48629;SDS011;34426;52.180;4.462;2023-04-01T15:35:15;22.45;;;6.47;;
48629;SDS011;34426;52.180;4.462;2023-04-01T15:37:55;29.08;;;6.40;;
48629;SDS011;34426;52.180;4.462;2023-04-01T15:40:42;29.67;;;6.80;;
48629;SDS011;34426;52.180;4.462;2023-04-01T15:43:31;31.65;;;7.28;;
48629;SDS011;34426;52.180;4.462;2023-04-01T15:49:23;33.25;;;6.63;;
48629;SDS011;34426;52.180;4.462;2023-04-01T15:52:33;25.85;;;6.43;;
48629;SDS011;34426;52.180;4.462;2023-04-01T15:55:20;29.00;;;6.32;;
48629;SDS011;34426;52.180;4.462;2023-04-01T16:00:49;34.00;;;7.65;;
48629;SDS011;34426;52.180;4.462;2023-04-01T16:03:38;29.77;;;7.50;;
48629;SDS011;34426;52.180;4.462;2023-04-01T16:12:19;18.85;;;8.50;;
48629;SDS011;34426;52.180;4.462;2023-04-01T16:15:06;10.82;;;7.63;;
48629;SDS011;34426;52.180;4.462;2023-04-01T16:21:12;8.90;;;6.78;;
48629;SDS011;34426;52.180;4.462;2023-04-01T16:26:22;7.30;;;6.60;;
48629;SDS011;34426;52.180;4.462;2023-04-01T16:29:05;11.80;;;7.00;;
48629;SDS011;34426;52.180;4.462;2023-04-01T16:31:54;14.27;;;6.55;;
48629;SDS011;34426;52.180;4.462;2023-04-01T16:34:34;8.77;;;6.18;;
48629;SDS011;34426;52.180;4.462;2023-04-01T16:37:14;7.57;;;6.03;;
48629;SDS011;34426;52.180;4.462;2023-04-01T16:40:01;10.52;;;6.38;;
48629;SDS011;34426;52.180;4.462;2023-04-01T16:42:50;11.30;;;5.95;;
48629;SDS011;34426;52.180;4.462;2023-04-01T16:45:33;9.60;;;6.13;;
48629;SDS011;34426;52.180;4.462;2023-04-01T16:48:30;7.80;;;5.20;;
48629;SDS011;34426;52.180;4.462;2023-04-01T16:51:24;12.07;;;5.68;;
48629;SDS011;34426;52.180;4.462;2023-04-01T16:54:31;9.27;;;5.82;;
48629;SDS011;34426;52.180;4.462;2023-04-01T16:57:15;11.38;;;5.18;;
48629;SDS011;34426;52.180;4.462;2023-04-01T17:00:10;9.98;;;5.20;;
48629;SDS011;34426;52.180;4.462;2023-04-01T17:09:20;6.90;;;5.00;;
48629;SDS011;34426;52.180;4.462;2023-04-01T17:12:21;9.00;;;4.85;;
48629;SDS011;34426;52.180;4.462;2023-04-01T17:17:55;7.07;;;4.80;;
48629;SDS011;34426;52.180;4.462;2023-04-01T17:20:59;9.70;;;4.80;;
48629;SDS011;34426;52.180;4.462;2023-04-01T17:24:02;7.45;;;4.50;;
48629;SDS011;34426;52.180;4.462;2023-04-01T17:26:56;9.30;;;5.10;;
48629;SDS011;34426;52.180;4.462;2023-04-01T17:29:46;4.80;;;4.32;;
48629;SDS011;34426;52.180;4.462;2023-04-01T17:33:09;7.32;;;4.63;;
48629;SDS011;34426;52.180;4.462;2023-04-01T17:36:08;6.93;;;4.70;;
48629;SDS011;34426;52.180;4.462;2023-04-01T17:38:56;6.63;;;4.30;;
48629;SDS011;34426;52.180;4.462;2023-04-01T17:41:48;9.88;;;5.10;;
48629;SDS011;34426;52.180;4.462;2023-04-01T17:47:36;9.98;;;5.00;;
48629;SDS011;34426;52.180;4.462;2023-04-01T17:50:25;6.30;;;4.25;;
48629;SDS011;34426;52.180;4.462;2023-04-01T17:58:55;8.23;;;5.15;;
48629;SDS011;34426;52.180;4.462;2023-04-01T18:01:53;9.10;;;4.50;;
48629;SDS011;34426;52.180;4.462;2023-04-01T18:10:59;4.43;;;4.03;;
48629;SDS011;34426;52.180;4.462;2023-04-01T18:13:59;8.02;;;4.43;;
48629;SDS011;34426;52.180;4.462;2023-04-01T18:17:12;9.45;;;5.15;;
48629;SDS011;34426;52.180;4.462;2023-04-01T18:20:04;6.60;;;4.47;;
48629;SDS011;34426;52.180;4.462;2023-04-01T18:22:57;7.07;;;4.20;;
48629;SDS011;34426;52.180;4.462;2023-04-01T18:25:30;5.85;;;4.30;;
48629;SDS011;34426;52.180;4.462;2023-04-01T18:28:24;6.32;;;4.93;;
48629;SDS011;34426;52.180;4.462;2023-04-01T18:31:14;6.80;;;4.45;;
48629;SDS011;34426;52.180;4.462;2023-04-01T18:34:12;4.53;;;3.50;;
48629;SDS011;34426;52.180;4.462;2023-04-01T18:36:44;5.65;;;3.45;;
48629;SDS011;34426;52.180;4.462;2023-04-01T18:39:30;5.53;;;3.60;;
48629;SDS011;34426;52.180;4.462;2023-04-01T18:42:05;7.03;;;3.92;;
48629;SDS011;34426;52.180;4.462;2023-04-01T18:44:48;10.13;;;4.40;;
48629;SDS011;34426;52.180;4.462;2023-04-01T18:47:50;4.50;;;3.67;;
48629;SDS011;34426;52.180;4.462;2023-04-01T18:50:32;3.65;;;3.28;;
48629;SDS011;34426;52.180;4.462;2023-04-01T18:53:13;4.97;;;3.83;;
48629;SDS011;34426;52.180;4.462;2023-04-01T18:56:02;8.13;;;4.28;;
48629;SDS011;34426;52.180;4.462;2023-04-01T19:01:07;5.90;;;4.25;;
48629;SDS011;34426;52.180;4.462;2023-04-01T19:03:51;6.20;;;4.77;;
48629;SDS011;34426;52.180;4.462;2023-04-01T19:06:35;7.65;;;4.15;;
48629;SDS011;34426;52.180;4.462;2023-04-01T19:09:21;10.70;;;4.38;;
48629;SDS011;34426;52.180;4.462;2023-04-01T19:11:54;5.63;;;3.85;;
48629;SDS011;34426;52.180;4.462;2023-04-01T19:14:44;5.65;;;4.25;;
48629;SDS011;34426;52.180;4.462;2023-04-01T19:17:37;7.53;;;4.22;;
48629;SDS011;34426;52.180;4.462;2023-04-01T19:20:22;5.05;;;4.22;;
48629;SDS011;34426;52.180;4.462;2023-04-01T19:23:07;6.70;;;4.75;;
48629;SDS011;34426;52.180;4.462;2023-04-01T19:26:03;6.57;;;4.95;;
48629;SDS011;34426;52.180;4.462;2023-04-01T19:28:41;5.45;;;4.95;;
48629;SDS011;34426;52.180;4.462;2023-04-01T19:31:28;7.28;;;5.10;;
48629;SDS011;34426;52.180;4.462;2023-04-01T19:34:22;6.10;;;4.88;;
48629;SDS011;34426;52.180;4.462;2023-04-01T19:37:19;8.05;;;5.03;;
48629;SDS011;34426;52.180;4.462;2023-04-01T19:40:03;8.27;;;5.60;;
48629;SDS011;34426;52.180;4.462;2023-04-01T19:42:50;7.30;;;5.45;;
48629;SDS011;34426;52.180;4.462;2023-04-01T19:45:34;7.28;;;5.57;;
48629;SDS011;34426;52.180;4.462;2023-04-01T19:48:13;8.40;;;5.75;;
48629;SDS011;34426;52.180;4.462;2023-04-01T19:51:10;8.23;;;5.68;;
48629;SDS011;34426;52.180;4.462;2023-04-01T19:53:55;7.82;;;5.40;;
48629;SDS011;34426;52.180;4.462;2023-04-01T19:56:34;7.82;;;5.65;;
48629;SDS011;34426;52.180;4.462;2023-04-01T19:59:15;6.50;;;5.85;;
48629;SDS011;34426;52.180;4.462;2023-04-01T20:01:58;8.68;;;6.90;;
48629;SDS011;34426;52.180;4.462;2023-04-01T20:04:42;15.90;;;7.85;;
48629;SDS011;34426;52.180;4.462;2023-04-01T20:07:24;8.80;;;7.22;;
48629;SDS011;34426;52.180;4.462;2023-04-01T20:12:42;16.45;;;8.20;;
48629;SDS011;34426;52.180;4.462;2023-04-01T20:15:33;10.02;;;7.63;;
48629;SDS011;34426;52.180;4.462;2023-04-01T20:18:02;11.43;;;7.65;;
48629;SDS011;34426;52.180;4.462;2023-04-01T20:20:39;10.75;;;7.22;;
48629;SDS011;34426;52.180;4.462;2023-04-01T20:23:34;9.07;;;6.82;;
48629;SDS011;34426;52.180;4.462;2023-04-01T20:26:14;10.25;;;7.85;;
48629;SDS011;34426;52.180;4.462;2023-04-01T20:28:49;9.07;;;6.63;;
48629;SDS011;34426;52.180;4.462;2023-04-01T20:31:32;11.95;;;7.68;;
48629;SDS011;34426;52.180;4.462;2023-04-01T20:37:24;12.80;;;7.00;;
48629;SDS011;34426;52.180;4.462;2023-04-01T20:40:34;11.77;;;7.07;;
48629;SDS011;34426;52.180;4.462;2023-04-01T20:46:46;14.40;;;8.38;;
48629;SDS011;34426;52.180;4.462;2023-04-01T20:52:29;14.52;;;9.30;;
48629;SDS011;34426;52.180;4.462;2023-04-01T20:58:32;18.13;;;9.60;;
48629;SDS011;34426;52.180;4.462;2023-04-01T21:01:15;14.75;;;8.77;;
48629;SDS011;34426;52.180;4.462;2023-04-01T21:03:57;17.05;;;8.95;;
48629;SDS011;34426;52.180;4.462;2023-04-01T21:06:46;17.38;;;8.90;;
48629;SDS011;34426;52.180;4.462;2023-04-01T21:12:35;14.52;;;8.65;;
48629;SDS011;34426;52.180;4.462;2023-04-01T21:15:19;15.48;;;9.13;;
48629;SDS011;34426;52.180;4.462;2023-04-01T21:18:24;15.50;;;9.32;;
48629;SDS011;34426;52.180;4.462;2023-04-01T21:21:29;16.02;;;9.23;;
48629;SDS011;34426;52.180;4.462;2023-04-01T21:27:30;14.50;;;8.90;;
48629;SDS011;34426;52.180;4.462;2023-04-01T21:30:29;12.18;;;8.57;;
48629;SDS011;34426;52.180;4.462;2023-04-01T21:36:34;15.30;;;8.38;;
48629;SDS011;34426;52.180;4.462;2023-04-01T21:39:24;13.60;;;8.75;;
48629;SDS011;34426;52.180;4.462;2023-04-01T21:42:13;14.13;;;8.25;;
48629;SDS011;34426;52.180;4.462;2023-04-01T21:44:57;13.25;;;8.68;;
48629;SDS011;34426;52.180;4.462;2023-04-01T21:53:55;13.63;;;8.77;;
48629;SDS011;34426;52.180;4.462;2023-04-01T22:11:46;13.55;;;8.65;;
48629;SDS011;34426;52.180;4.462;2023-04-01T22:14:25;16.23;;;8.68;;
48629;SDS011;34426;52.180;4.462;2023-04-01T22:17:04;13.30;;;8.05;;
48629;SDS011;34426;52.180;4.462;2023-04-01T22:19:45;13.73;;;7.20;;
48629;SDS011;34426;52.180;4.462;2023-04-01T22:22:22;11.90;;;6.97;;
48629;SDS011;34426;52.180;4.462;2023-04-01T22:25:00;16.13;;;9.13;;
48629;SDS011;34426;52.180;4.462;2023-04-01T22:27:35;19.25;;;10.23;;
48629;SDS011;34426;52.180;4.462;2023-04-01T22:30:16;20.08;;;10.57;;
48629;SDS011;34426;52.180;4.462;2023-04-01T22:32:56;18.33;;;9.85;;
48629;SDS011;34426;52.180;4.462;2023-04-01T22:35:33;17.27;;;10.68;;
48629;SDS011;34426;52.180;4.462;2023-04-01T22:38:09;18.95;;;12.15;;
48629;SDS011;34426;52.180;4.462;2023-04-01T22:41:00;21.35;;;11.63;;